createdAt,value
2022-10-09T00:02:23.889Z,100.00
2022-10-09T00:05:31.370Z,100.00
2022-10-09T00:08:39.406Z,100.00
2022-10-09T00:11:46.012Z,100.00
2022-10-09T00:14:52.791Z,100.00
2022-10-09T00:17:59.400Z,100.00
2022-10-09T00:21:06.865Z,100.00
2022-10-09T00:24:15.715Z,100.00
2022-10-09T00:27:24.506Z,100.00
2022-10-09T00:30:31.876Z,100.00
2022-10-09T00:33:39.440Z,100.00
2022-10-09T00:36:48.410Z,100.00
2022-10-09T00:39:55.174Z,100.00
2022-10-09T00:43:02.308Z,100.00
2022-10-09T00:46:16.847Z,100.00
2022-10-09T00:49:28.999Z,100.00
2022-10-09T00:52:35.948Z,100.00
2022-10-09T00:55:44.060Z,100.00
2022-10-09T00:58:56.270Z,100.00
2022-10-09T01:02:03.518Z,100.00
2022-10-09T01:05:12.030Z,100.00
2022-10-09T01:08:26.244Z,100.00
2022-10-09T01:11:42.480Z,100.00
2022-10-09T01:14:57.873Z,100.00
2022-10-09T01:18:09.175Z,100.00
2022-10-09T01:21:19.681Z,100.00
2022-10-09T01:24:31.162Z,100.00
2022-10-09T01:27:39.072Z,100.00
2022-10-09T01:30:47.189Z,100.00
2022-10-09T01:33:53.998Z,100.00
2022-10-09T01:37:02.065Z,100.00
2022-10-09T01:40:12.064Z,100.00
2022-10-09T01:43:19.263Z,100.00
2022-10-09T01:46:29.211Z,100.00
2022-10-09T01:49:52.906Z,100.00
2022-10-09T01:53:02.302Z,100.00
2022-10-09T01:56:15.148Z,100.00
2022-10-09T01:59:23.457Z,100.00
2022-10-09T02:02:30.933Z,100.00
2022-10-09T02:05:38.530Z,100.00
2022-10-09T02:08:48.099Z,100.00
2022-10-09T02:11:58.627Z,100.00
2022-10-09T02:15:05.465Z,100.00
2022-10-09T02:18:16.005Z,100.00
2022-10-09T02:21:27.435Z,100.00
2022-10-09T02:24:34.876Z,100.00
2022-10-09T02:27:41.982Z,100.00
2022-10-09T02:30:55.625Z,100.00
2022-10-09T02:34:05.671Z,100.00
2022-10-09T02:37:12.351Z,100.00
2022-10-09T02:40:19.405Z,100.00
2022-10-09T02:43:26.117Z,100.00
2022-10-09T02:46:32.947Z,100.00
2022-10-09T02:49:40.062Z,100.00
2022-10-09T02:52:47.099Z,100.00
2022-10-09T02:55:53.994Z,100.00
2022-10-09T02:59:00.852Z,100.00
2022-10-09T03:02:07.723Z,100.00
2022-10-09T03:05:14.302Z,100.00
2022-10-09T03:08:20.865Z,100.00
2022-10-09T03:11:28.096Z,100.00
2022-10-09T03:14:35.284Z,100.00
2022-10-09T03:17:42.036Z,100.00
2022-10-09T03:20:49.097Z,100.00
2022-10-09T03:23:56.581Z,100.00
2022-10-09T03:27:03.257Z,100.00
2022-10-09T03:30:12.232Z,100.00
2022-10-09T03:33:18.790Z,100.00
2022-10-09T03:36:25.312Z,100.00
2022-10-09T03:39:32.332Z,100.00
2022-10-09T03:42:38.993Z,100.00
2022-10-09T03:45:45.812Z,100.00
2022-10-09T03:48:52.509Z,100.00
2022-10-09T03:51:59.075Z,100.00
2022-10-09T03:55:07.120Z,100.00
2022-10-09T03:58:13.908Z,100.00
2022-10-09T04:01:20.787Z,100.00
2022-10-09T04:04:28.052Z,100.00
2022-10-09T04:07:34.914Z,100.00
2022-10-09T04:10:41.561Z,100.00
2022-10-09T04:13:48.293Z,100.00
2022-10-09T04:16:55.070Z,100.00
2022-10-09T04:20:01.661Z,100.00
2022-10-09T04:23:08.233Z,100.00
2022-10-09T04:26:15.677Z,100.00
2022-10-09T04:29:22.380Z,100.00
2022-10-09T04:32:29.129Z,100.00
2022-10-09T04:35:35.583Z,100.00
2022-10-09T04:38:42.356Z,100.00
2022-10-09T04:41:49.007Z,100.00
2022-10-09T04:44:55.703Z,100.00
2022-10-09T04:48:02.599Z,100.00
2022-10-09T04:51:10.472Z,100.00
2022-10-09T04:54:17.036Z,100.00
2022-10-09T04:57:23.707Z,100.00
2022-10-09T05:00:30.298Z,100.00
2022-10-09T05:03:37.893Z,100.00
2022-10-09T05:06:44.452Z,100.00
2022-10-09T05:09:51.310Z,100.00
2022-10-09T05:12:57.809Z,100.00
2022-10-09T05:16:07.347Z,100.00
2022-10-09T05:19:12.468Z,100.00
2022-10-09T05:22:19.197Z,100.00
2022-10-09T05:25:26.036Z,100.00
2022-10-09T05:28:33.093Z,100.00
2022-10-09T05:31:39.905Z,100.00
2022-10-09T05:34:46.616Z,100.00
2022-10-09T05:37:53.359Z,100.00
2022-10-09T05:41:01.349Z,100.00
2022-10-09T05:44:08.946Z,100.00
2022-10-09T05:47:17.981Z,100.00
2022-10-09T05:50:24.943Z,100.00
2022-10-09T05:53:32.090Z,100.00
2022-10-09T05:56:40.360Z,100.00
2022-10-09T05:59:47.294Z,100.00
2022-10-09T06:02:53.958Z,100.00
2022-10-09T06:06:03.753Z,100.00
2022-10-09T06:09:11.900Z,100.00
2022-10-09T06:12:18.531Z,100.00
2022-10-09T06:15:25.080Z,100.00
2022-10-09T06:18:31.686Z,100.00
2022-10-09T06:21:38.244Z,100.00
2022-10-09T06:24:44.960Z,100.00
2022-10-09T06:27:51.709Z,100.00
2022-10-09T06:31:03.669Z,100.00
2022-10-09T06:34:12.260Z,100.00
2022-10-09T06:37:18.759Z,100.00
2022-10-09T06:40:25.524Z,100.00
2022-10-09T06:43:32.273Z,100.00
2022-10-09T06:46:41.095Z,100.00
2022-10-09T06:49:47.698Z,100.00
2022-10-09T06:52:54.285Z,100.00
2022-10-09T06:56:01.026Z,100.00
2022-10-09T06:59:08.630Z,100.00
2022-10-09T07:02:15.288Z,100.00
2022-10-09T07:05:21.970Z,100.00
2022-10-09T07:08:28.669Z,100.00
2022-10-09T07:11:36.933Z,100.00
2022-10-09T07:14:43.537Z,100.00
2022-10-09T07:17:50.234Z,100.00
2022-10-09T07:20:57.302Z,100.00
2022-10-09T07:24:04.702Z,100.00
2022-10-09T07:27:11.364Z,100.00
2022-10-09T07:30:18.146Z,100.00
2022-10-09T07:33:24.813Z,100.00
2022-10-09T07:36:31.684Z,100.00
2022-10-09T07:39:42.894Z,100.00
2022-10-09T07:42:51.757Z,100.00
2022-10-09T07:46:02.275Z,100.00
2022-10-09T07:49:09.101Z,100.00
2022-10-09T07:52:15.765Z,100.00
2022-10-09T07:55:22.449Z,100.00
2022-10-09T07:58:29.096Z,100.00
2022-10-09T08:01:37.091Z,100.00
2022-10-09T08:04:43.682Z,100.00
2022-10-09T08:07:50.384Z,100.00
2022-10-09T08:10:57.142Z,100.00
2022-10-09T08:14:03.771Z,100.00
2022-10-09T08:17:10.465Z,100.00
2022-10-09T08:20:17.307Z,100.00
2022-10-09T08:23:23.943Z,100.00
2022-10-09T08:26:31.987Z,100.00
2022-10-09T08:29:40.376Z,100.00
2022-10-09T08:32:47.379Z,100.00
2022-10-09T08:35:55.128Z,100.00
2022-10-09T08:39:02.133Z,100.00
2022-10-09T08:42:19.378Z,100.00
2022-10-09T08:45:26.039Z,100.00
2022-10-09T08:48:37.973Z,100.00
2022-10-09T08:51:46.336Z,100.00
2022-10-09T08:54:54.119Z,100.00
2022-10-09T08:58:05.767Z,100.00
2022-10-09T09:01:22.583Z,100.00
2022-10-09T09:04:39.686Z,100.00
2022-10-09T09:07:55.799Z,100.00
2022-10-09T09:11:21.680Z,100.00
2022-10-09T09:14:43.551Z,100.00
2022-10-09T09:17:59.867Z,100.00
2022-10-09T09:21:14.691Z,99.64
2022-10-09T09:24:23.224Z,98.98
2022-10-09T09:27:33.197Z,95.98
2022-10-09T09:30:45.691Z,96.16
2022-10-09T09:33:58.606Z,95.54
2022-10-09T09:37:05.657Z,92.30
2022-10-09T09:40:36.184Z,92.38
2022-10-09T09:43:44.007Z,91.37
2022-10-09T09:46:51.863Z,87.95
2022-10-09T09:50:01.164Z,85.91
2022-10-09T09:53:08.509Z,84.23
2022-10-09T09:56:15.667Z,83.92
2022-10-09T09:59:38.075Z,82.91
2022-10-09T10:02:44.904Z,80.92
2022-10-09T10:05:52.092Z,81.01
2022-10-09T10:09:03.865Z,78.13
2022-10-09T10:12:19.541Z,75.55
2022-10-09T10:15:29.757Z,76.03
2022-10-09T10:18:42.635Z,74.30
2022-10-09T10:21:56.287Z,73.85
2022-10-09T10:25:03.471Z,75.60
2022-10-09T10:28:19.101Z,71.74
2022-10-09T10:31:41.374Z,71.75
2022-10-09T10:34:53.696Z,68.23
2022-10-09T10:38:06.839Z,68.71
2022-10-09T10:41:21.044Z,69.74
2022-10-09T10:44:38.631Z,69.72
2022-10-09T10:47:50.223Z,69.25
2022-10-09T10:51:07.711Z,67.93
2022-10-09T10:54:29.542Z,65.55
2022-10-09T10:57:44.428Z,65.97
2022-10-09T11:01:05.413Z,66.57
2022-10-09T11:04:29.968Z,67.30
2022-10-09T11:07:43.114Z,64.99
2022-10-09T11:11:00.487Z,63.87
2022-10-09T11:14:20.197Z,63.78
2022-10-09T11:17:34.814Z,63.28
2022-10-09T11:20:56.217Z,62.41
2022-10-09T11:24:24.124Z,60.53
2022-10-09T11:27:39.061Z,60.28
2022-10-09T11:30:52.337Z,56.62
2022-10-09T11:34:04.548Z,57.54
2022-10-09T11:37:17.515Z,57.94
2022-10-09T11:40:27.767Z,57.99
2022-10-09T11:43:47.866Z,58.25
2022-10-09T11:47:02.025Z,58.31
2022-10-09T11:50:27.061Z,58.62
2022-10-09T11:53:37.000Z,57.21
2022-10-09T11:56:55.600Z,57.49
2022-10-09T12:00:11.254Z,57.23
2022-10-09T12:03:30.158Z,57.08
2022-10-09T12:06:48.349Z,55.85
2022-10-09T12:10:01.529Z,55.98
2022-10-09T12:13:28.313Z,57.24
2022-10-09T12:16:42.473Z,54.94
2022-10-09T12:19:51.207Z,55.68
2022-10-09T12:23:25.109Z,57.38
2022-10-09T12:26:29.070Z,57.53
2022-10-09T12:29:41.684Z,56.95
2022-10-09T12:32:52.674Z,55.24
2022-10-09T12:36:06.322Z,54.75
2022-10-09T12:39:20.425Z,55.59
2022-10-09T12:42:28.034Z,54.35
2022-10-09T12:45:34.931Z,54.32
2022-10-09T12:48:43.752Z,54.63
2022-10-09T12:51:56.430Z,54.33
2022-10-09T12:55:03.740Z,53.66
2022-10-09T12:58:17.609Z,54.73
2022-10-09T13:01:24.979Z,55.68
2022-10-09T13:04:34.964Z,55.31
2022-10-09T13:07:45.344Z,54.92
2022-10-09T13:10:55.690Z,54.72
2022-10-09T13:14:03.006Z,55.37
2022-10-09T13:17:26.525Z,55.50
2022-10-09T13:20:34.309Z,54.86
2022-10-09T13:23:40.937Z,54.41
2022-10-09T13:26:47.602Z,52.98
2022-10-09T13:29:54.275Z,52.66
2022-10-09T13:33:01.127Z,51.21
2022-10-09T13:36:08.611Z,52.61
2022-10-09T13:39:16.593Z,53.98
2022-10-09T13:42:25.139Z,53.93
2022-10-09T13:45:31.801Z,53.60
2022-10-09T13:48:39.594Z,52.70
2022-10-09T13:51:46.256Z,51.83
2022-10-09T13:54:52.776Z,51.60
2022-10-09T13:57:59.459Z,51.98
2022-10-09T14:01:06.301Z,52.05
2022-10-09T14:04:13.057Z,51.68
2022-10-09T14:07:19.664Z,50.93
2022-10-09T14:10:26.821Z,50.85
2022-10-09T14:13:33.492Z,50.54
2022-10-09T14:16:40.278Z,51.03
2022-10-09T14:19:46.871Z,50.52
2022-10-09T14:22:53.570Z,50.23
2022-10-09T14:26:05.144Z,49.06
2022-10-09T14:29:11.978Z,49.88
2022-10-09T14:32:18.619Z,49.34
2022-10-09T14:35:25.388Z,49.71
2022-10-09T14:38:32.015Z,49.98
2022-10-09T14:41:40.215Z,50.19
2022-10-09T14:44:46.819Z,50.86
2022-10-09T14:47:53.457Z,52.26
2022-10-09T14:51:04.830Z,53.23
2022-10-09T14:54:12.206Z,54.09
2022-10-09T14:57:19.254Z,54.10
2022-10-09T15:00:25.852Z,53.84
2022-10-09T15:03:33.264Z,53.58
2022-10-09T15:06:39.814Z,53.22
2022-10-09T15:09:46.479Z,53.30
2022-10-09T15:12:55.733Z,53.28
2022-10-09T15:16:03.947Z,53.01
2022-10-09T15:19:10.621Z,52.77
2022-10-09T15:22:17.409Z,52.74
2022-10-09T15:25:25.338Z,52.85
2022-10-09T15:28:32.017Z,53.35
2022-10-09T15:31:41.227Z,53.08
2022-10-09T15:34:46.454Z,53.46
2022-10-09T15:37:55.679Z,54.06
2022-10-09T15:41:02.689Z,54.16
2022-10-09T15:44:14.204Z,54.40
2022-10-09T15:47:39.330Z,55.02
2022-10-09T15:50:51.643Z,55.54
2022-10-09T15:53:59.957Z,56.55
2022-10-09T15:57:09.665Z,57.45
2022-10-09T16:00:17.631Z,58.61
2022-10-09T16:03:24.145Z,59.76
2022-10-09T16:06:30.848Z,60.88
2022-10-09T16:09:38.009Z,61.99
2022-10-09T16:12:44.653Z,62.83
2022-10-09T16:15:51.573Z,63.92
2022-10-09T16:19:00.187Z,64.52
2022-10-09T16:22:07.021Z,65.32
2022-10-09T16:25:14.237Z,66.21
2022-10-09T16:28:20.883Z,67.17
2022-10-09T16:31:31.409Z,68.36
2022-10-09T16:34:38.142Z,69.55
2022-10-09T16:37:45.064Z,70.45
2022-10-09T16:41:07.862Z,71.21
2022-10-09T16:44:17.009Z,72.00
2022-10-09T16:47:23.596Z,72.61
2022-10-09T16:50:30.501Z,73.43
2022-10-09T16:53:37.430Z,74.20
2022-10-09T16:56:45.889Z,74.58
2022-10-09T16:59:52.540Z,74.94
2022-10-09T17:02:59.719Z,75.58
2022-10-09T17:06:12.097Z,76.17
2022-10-09T17:09:18.833Z,76.90
2022-10-09T17:12:25.438Z,77.55
2022-10-09T17:15:32.140Z,77.90
2022-10-09T17:18:39.622Z,78.28
2022-10-09T17:21:46.353Z,78.37
2022-10-09T17:24:53.100Z,78.95
2022-10-09T17:28:01.415Z,79.30
2022-10-09T17:31:16.272Z,79.92
2022-10-09T17:34:23.554Z,80.34
2022-10-09T17:37:30.107Z,80.59
2022-10-09T17:40:40.116Z,81.17
2022-10-09T17:43:47.049Z,81.77
2022-10-09T17:46:53.942Z,82.03
2022-10-09T17:50:00.616Z,82.15
2022-10-09T17:53:07.684Z,82.60
2022-10-09T17:56:15.341Z,82.93
2022-10-09T17:59:22.062Z,83.47
2022-10-09T18:02:28.847Z,84.18
2022-10-09T18:05:41.392Z,84.51
2022-10-09T18:08:48.368Z,84.89
2022-10-09T18:11:54.956Z,85.26
2022-10-09T18:15:02.813Z,85.38
2022-10-09T18:18:12.690Z,85.58
2022-10-09T18:21:19.621Z,86.08
2022-10-09T18:24:26.343Z,86.35
2022-10-09T18:27:33.431Z,86.69
2022-10-09T18:30:46.068Z,87.17
2022-10-09T18:33:53.601Z,87.22
2022-10-09T18:37:00.271Z,87.38
2022-10-09T18:40:10.773Z,87.66
2022-10-09T18:43:17.348Z,88.10
2022-10-09T18:46:26.599Z,88.46
2022-10-09T18:49:33.724Z,88.90
2022-10-09T18:52:42.699Z,89.20
2022-10-09T18:55:49.399Z,89.43
2022-10-09T18:58:56.481Z,89.56
2022-10-09T19:02:03.131Z,89.79
2022-10-09T19:05:10.771Z,89.91
2022-10-09T19:08:17.563Z,90.03
2022-10-09T19:11:24.214Z,90.17
2022-10-09T19:14:30.948Z,90.09
2022-10-09T19:17:37.657Z,90.38
2022-10-09T19:20:44.357Z,90.50
2022-10-09T19:23:52.219Z,90.93
2022-10-09T19:26:59.427Z,91.27
2022-10-09T19:30:07.655Z,91.62
2022-10-09T19:33:14.607Z,91.74
2022-10-09T19:36:24.119Z,91.79
2022-10-09T19:39:29.438Z,92.00
2022-10-09T19:42:36.061Z,92.12
2022-10-09T19:45:43.189Z,92.00
2022-10-09T19:48:49.791Z,92.18
2022-10-09T19:51:56.819Z,92.22
2022-10-09T19:55:03.572Z,92.48
2022-10-09T19:58:10.303Z,92.66
2022-10-09T20:01:19.116Z,92.69
2022-10-09T20:04:26.045Z,92.84
2022-10-09T20:07:34.243Z,92.90
2022-10-09T20:10:41.697Z,92.95
2022-10-09T20:13:54.842Z,92.85
2022-10-09T20:17:03.108Z,92.87
2022-10-09T20:20:11.269Z,93.30
2022-10-09T20:23:18.073Z,93.31
2022-10-09T20:26:25.158Z,93.53
2022-10-09T20:29:31.810Z,93.68
2022-10-09T20:32:38.309Z,93.94
2022-10-09T20:35:45.813Z,93.94
2022-10-09T20:38:54.726Z,94.11
2022-10-09T20:42:01.258Z,94.07
2022-10-09T20:45:09.125Z,94.39
2022-10-09T20:48:15.721Z,94.58
2022-10-09T20:51:23.471Z,94.98
2022-10-09T20:54:30.437Z,95.15
2022-10-09T20:57:37.118Z,95.65
2022-10-09T21:00:45.523Z,95.82
2022-10-09T21:03:52.698Z,96.11
2022-10-09T21:06:59.443Z,95.97
2022-10-09T21:10:07.299Z,96.05
2022-10-09T21:13:14.443Z,96.53
2022-10-09T21:16:23.118Z,96.66
2022-10-09T21:19:30.201Z,97.09
2022-10-09T21:22:36.981Z,97.29
2022-10-09T21:25:49.427Z,97.44
2022-10-09T21:28:59.685Z,97.73
2022-10-09T21:32:07.089Z,97.56
2022-10-09T21:35:13.644Z,97.57
2022-10-09T21:38:21.773Z,97.77
2022-10-09T21:41:29.041Z,97.93
2022-10-09T21:44:35.820Z,98.32
2022-10-09T21:47:42.318Z,98.29
2022-10-09T21:50:48.831Z,98.59
2022-10-09T21:53:58.810Z,98.79
2022-10-09T21:57:05.845Z,99.18
2022-10-09T22:00:14.480Z,99.32
2022-10-09T22:03:21.159Z,98.93
2022-10-09T22:06:27.982Z,98.94
2022-10-09T22:09:34.874Z,99.12
2022-10-09T22:12:41.643Z,99.01
2022-10-09T22:15:51.196Z,99.15
2022-10-09T22:18:58.441Z,99.24
2022-10-09T22:22:05.617Z,99.03
2022-10-09T22:25:12.433Z,98.87
2022-10-09T22:28:21.916Z,99.01
2022-10-09T22:31:28.018Z,99.06
2022-10-09T22:34:35.420Z,99.39
2022-10-09T22:37:42.020Z,99.76
2022-10-09T22:40:48.543Z,99.86
2022-10-09T22:43:57.501Z,99.99
2022-10-09T22:47:04.426Z,100.00
2022-10-09T22:50:12.164Z,100.00
2022-10-09T22:53:18.826Z,100.00
2022-10-09T22:56:28.708Z,100.00
2022-10-09T22:59:35.928Z,100.00
2022-10-09T23:02:42.616Z,100.00
2022-10-09T23:05:49.346Z,100.00
2022-10-09T23:08:56.039Z,100.00
2022-10-09T23:12:03.041Z,100.00
2022-10-09T23:15:11.380Z,100.00
2022-10-09T23:18:18.029Z,100.00
2022-10-09T23:21:25.375Z,100.00
2022-10-09T23:24:32.108Z,100.00
2022-10-09T23:27:38.805Z,100.00
2022-10-09T23:30:45.515Z,100.00
2022-10-09T23:33:52.183Z,100.00
2022-10-09T23:36:58.945Z,100.00
2022-10-09T23:40:06.564Z,100.00
2022-10-09T23:43:13.229Z,100.00
2022-10-09T23:46:22.380Z,100.00
2022-10-09T23:49:29.077Z,100.00
2022-10-09T23:52:37.588Z,100.00
2022-10-09T23:55:44.505Z,100.00
2022-10-09T23:58:52.731Z,100.00
